Terminal Aerodrome Forecast
Issued by NWS Springfield, MO

Home | Current Version | Previous Version | Text Only | Print | Product List | Glossary On
Versions: 1 2 3 4 5 6 7 8 9 10 11 12 13 14 15 16 17 18 19 20 21 22 23 24 25 26 27 28 29 30
000
FTUS43 KSGF 261300 AAB
TAFSGF
TAF AMD
KSGF 261341Z 2614/2712 22011G19KT P6SM SCT016 BKN022 OVC060
      TEMPO 2616/2618 SCT025 BKN060
     FM261800 23010KT P6SM SCT050
     FM270100 20007KT P6SM SCT120 PROB30 2707/2712 4SM -TSRA
      OVC025CB=

USA.gov is the U.S. government's official web portal to all federal, state and local government web resources and services.